Station: Rabbit Flat  

  Atmospheric Gas Attenuation - ITU Rec 676-11   ----------------- dB/100km -----------------
Date Time Temp RH % AH g/m3 Dew Point Wind Direction Speed kph Gust kph Barometer mB Rainfall Since 9am 24GHz 47GHz 76GHz 122GHz 134GHz 241GHz
09/05 06:10 13.7 41 4.86 0.7 13 17 1019.5 0 11.7 20.5 26.1 67.7 52.8 178.3
09/05 06:00 14 41 4.95 1 13 19 1019.4 0 11.8 20.5 26.3 68.3 53.6 181.2
09/05 05:50 13.9 41 4.92 0.9 15 17 1019.3 0 11.8 20.5 26.2 68.1 53.3 180.2
09/05 05:40 13.8 41 4.89 0.8 13 15 1019.4 0 11.7 20.5 26.2 67.9 53.0 179.3
09/05 05:30 14 41 4.95 1 13 19 1019.4 0 11.8 20.5 26.3 68.3 53.6 181.2
09/05 05:20 14.3 40 4.91 0.9 15 17 1019.3 0 11.7 20.4 26.1 67.7 52.9 179.0
09/05 05:10 14.7 40 5.04 1.3 15 17 1019.2 0 12.0 20.5 26.4 68.6 54.1 183.3
09/05 05:00 14.9 39 4.97 1.1 15 20 1019.1 0 11.8 20.4 26.1 67.7 53.2 180.0
09/05 04:50 15.1 39 5.03 1.3 15 17 1019.1 0 12.0 20.4 26.2 68.1 53.8 182.0
09/05 04:40 15.5 38 5.02 1.3 17 22 1019.1 0 11.9 20.3 26.1 67.7 53.4 180.7
09/05 04:30 15.6 40 5.32 2.1 17 26 1019 0 12.6 20.7 27.1 70.4 56.7 192.4
09/05 04:20 15.2 41 5.32 2.1 17 20 1019 0 12.6 20.8 27.2 70.7 57.0 193.3
09/05 04:10 15.3 42 5.48 2.5 19 22 1018.8 0 12.9 21.0 27.7 72.1 58.7 199.5
09/05 04:00 15.6 42 5.59 2.7 20 28 1018.8 0 13.1 21.1 28.0 72.8 59.8 203.2
09/05 03:50 15.9 42 5.69 3 15 19 1018.8 0 13.3 21.1 28.2 73.5 60.7 206.5
09/05 03:40 16.4 42 5.86 3.5 20 24 1018.9 0 13.7 21.3 28.7 74.6 62.3 212.2
09/05 03:30 16.4 45 6.28 4.4 15 24 1019 0 14.6 21.9 30.1 78.6 67.2 229.3
09/05 03:20 16.2 47 6.48 4.9 17 20 1019 0 15.0 22.2 30.9 80.7 69.7 238.2
09/05 03:10 16.4 46 6.42 4.8 13 17 1018.8 0 14.8 22.1 30.6 79.9 68.8 235.1
09/05 03:00 16.9 44 6.33 4.6 13 17 1018.8 0 14.6 21.8 30.1 78.6 67.3 229.9
09/05 02:50 17.1 43 6.26 4.4 13 17 1018.8 0 14.5 21.7 29.8 77.7 66.4 226.5
09/05 02:40 17.4 42 6.22 4.4 11 13 1018.9 0 14.4 21.5 29.6 77.1 65.7 224.1
09/05 02:30 17.7 42 6.34 4.6 15 20 1018.9 0 14.6 21.6 29.9 77.9 66.8 228.1
09/05 02:20 17.7 43 6.49 5 13 17 1018.9 0 14.9 21.9 30.4 79.3 68.5 234.2
09/05 02:10 17.7 43 6.49 5 17 19 1018.9 0 14.9 21.9 30.4 79.3 68.5 234.2
09/05 02:00 17.4 44 6.52 5 11 15 1018.9 0 15.0 22.0 30.6 79.9 69.1 236.3
09/05 01:50 17.3 45 6.63 5.3 11 11 1018.8 0 15.3 22.2 31.0 81.0 70.5 241.1
09/05 01:40 17.6 44 6.6 5.2 13 15 1018.8 0 15.2 22.0 30.8 80.4 69.9 239.0
09/05 01:30 17.5 46 6.86 5.8 13 19 1018.8 0 15.7 22.4 31.8 83.0 73.0 250.0
09/05 01:20 17.2 47 6.88 5.8 13 17 1019 0 15.8 22.5 32.0 83.5 73.6 251.8
09/05 01:10 16.7 50 7.11 6.2 11 15 1019 0 16.3 23.0 33.0 86.3 76.8 263.1
09/05 01:00 16.4 52 7.26 6.5 11 15 1019 0 16.6 23.3 33.7 88.1 78.9 270.4
09/05 00:50 16.5 52 7.3 6.6 11 13 1019 0 16.7 23.3 33.8 88.4 79.3 271.8
09/05 00:40 16.8 51 7.29 6.6 11 13 1019 0 16.7 23.3 33.6 88.0 78.9 270.4
09/05 00:30 17.2 50 7.32 6.7 11 15 1019 0 16.7 23.2 33.6 87.8 78.8 270.3
09/05 00:20 17.6 49 7.35 6.8 15 17 1019.1 0 16.8 23.1 33.5 87.7 78.8 270.2
09/05 00:10 17.9 48 7.33 6.7 13 17 1019.1 0 16.7 23.0 33.3 87.2 78.3 268.4
09/05 00:00 18.3 47 7.35 6.8 15 22 1019.2 0 16.7 23.0 33.2 86.9 78.1 267.9
08/05 23:50 18.5 46 7.28 6.7 15 17 1019.2 0 16.6 22.8 32.9 86.0 77.1 264.4
08/05 23:40 18.6 46 7.32 6.8 20 26 1019.2 0 16.7 22.9 33.0 86.3 77.5 265.7
08/05 23:30 18.7 47 7.52 7.2 15 22 1019.3 0 17.1 23.1 33.7 88.1 79.8 273.7
08/05 23:20 18.7 48 7.68 7.5 15 19 1019.3 0 17.4 23.4 34.3 89.7 81.7 280.4
08/05 23:10 18.5 49 7.75 7.6 15 15 1019.3 0 17.6 23.5 34.6 90.6 82.7 284.1
08/05 23:00 18.4 50 7.86 7.8 13 17 1019.3 0 17.8 23.7 35.1 91.8 84.2 289.1
08/05 22:50 18.5 50 7.91 7.9 15 17 1019.3 0 17.9 23.7 35.2 92.2 84.7 290.9
08/05 22:40 18.8 49 7.89 7.9 15 17 1019.3 0 17.8 23.6 35.0 91.6 84.1 289.0
08/05 22:30 18.9 49 7.94 8 15 20 1019.2 0 17.9 23.7 35.1 92.0 84.6 290.7
08/05 22:20 19 49 7.98 8.1 15 19 1019.2 0 18.0 23.7 35.2 92.3 85.0 292.0
08/05 22:10 19.2 48 7.91 7.9 15 17 1019.2 0 17.9 23.6 34.9 91.4 83.9 288.3
08/05 22:00 19.3 49 8.13 8.3 17 20 1019.2 0 18.3 23.9 35.7 93.4 86.5 297.3
08/05 21:50 19.1 49 8.03 8.1 15 17 1019.2 0 18.1 23.8 35.4 92.7 85.5 293.8
08/05 21:40 19 50 8.15 8.4 15 15 1019.1 0 18.4 24.0 35.9 93.9 87.0 299.2
08/05 21:30 18.9 50 8.1 8.3 13 17 1019 0 18.3 23.9 35.7 93.6 86.5 297.4
08/05 21:20 18.9 51 8.26 8.6 13 17 1018.9 0 18.6 24.2 36.3 95.1 88.5 304.2
08/05 21:10 18.8 51 8.21 8.5 15 17 1018.8 0 18.5 24.1 36.2 94.7 87.9 302.4
08/05 21:00 18.6 52 8.28 8.6 13 17 1018.8 0 18.7 24.3 36.5 95.7 89.0 306.2
08/05 20:50 18.5 53 8.38 8.7 13 17 1018.8 0 18.9 24.4 36.9 96.8 90.4 310.9
08/05 20:40 18.4 54 8.49 8.9 11 13 1018.7 0 19.1 24.6 37.4 98.0 91.8 316.0
08/05 20:30 18.6 53 8.43 8.8 11 13 1018.7 0 19.0 24.5 37.1 97.2 90.9 312.7
08/05 20:20 18.8 53 8.53 9 11 11 1018.6 0 19.2 24.6 37.4 97.9 91.9 316.2
08/05 20:10 18.7 53 8.48 8.9 11 11 1018.5 0 19.1 24.5 37.2 97.5 91.3 314.4
08/05 20:00 18.6 53 8.43 8.8 9 11 1018.4 0 19.0 24.5 37.1 97.1 90.8 312.6
08/05 19:50 18.9 51 8.26 8.6 9 9 1018.3 0 18.6 24.1 36.3 95.1 88.4 304.1
08/05 19:40 19.4 50 8.34 8.7 9 9 1018.2 0 18.8 24.1 36.4 95.3 88.8 305.6
08/05 19:30 19.7 49 8.32 8.7 9 11 1018.1 0 18.7 24.0 36.1 94.7 88.2 303.6
08/05 19:20 19.9 48 8.25 8.6 9 11 1018 0 18.6 23.8 35.8 93.8 87.2 299.8
08/05 19:10 20.4 46 8.14 8.4 9 11 1017.9 0 18.3 23.5 35.2 92.1 85.3 293.4
08/05 19:00 20.7 45 8.1 8.4 11 15 1017.8 0 18.2 23.4 34.9 91.4 84.5 290.6
08/05 18:50 21.3 43 8.01 8.2 11 11 1017.7 0 18.0 23.1 34.3 89.8 82.8 284.7
08/05 18:40 21.6 42 7.97 8.1 13 15 1017.6 0 17.9 23.0 34.0 89.1 82.0 282.0
08/05 18:30 21.8 41 7.87 8 15 19 1017.5 0 17.7 22.8 33.6 88.0 80.6 277.2
08/05 18:20 22.1 41 8 8.2 15 17 1017.4 0 17.9 22.9 33.9 88.8 81.8 281.4
08/05 18:10 22.5 39 7.79 7.9 13 15 1017.1 0 17.5 22.5 33.0 86.4 79.0 271.5
08/05 18:00 23.1 38 7.85 8 19 30 1017 0 17.6 22.4 33.0 86.3 79.1 271.9
08/05 17:50 23.3 38 7.94 8.2 17 19 1016.9 0 17.8 22.5 33.2 87.0 79.9 274.8
08/05 17:40 23.2 38 7.9 8.1 17 20 1016.9 0 17.7 22.5 33.1 86.7 79.6 273.6
08/05 17:30 24 36 7.83 8 17 24 1016.7 0 17.5 22.2 32.6 85.2 78.0 268.1
08/05 17:20 24.4 35 7.79 8 11 19 1016.8 0 17.4 22.0 32.3 84.4 77.1 265.3
08/05 17:10 24.5 35 7.83 8 22 28 1016.7 0 17.5 22.1 32.4 84.7 77.5 266.5
08/05 17:00 24.2 36 7.92 8.2 13 20 1016.6 0 17.7 22.2 32.8 85.8 78.8 271.0
08/05 16:50 24.8 35 7.97 8.3 13 15 1016.7 0 17.8 22.2 32.7 85.6 78.8 271.0
08/05 16:40 24.4 35 7.79 8 19 20 1016.7 0 17.4 22.0 32.3 84.4 77.1 265.2
08/05 16:30 24.3 35 7.74 7.9 20 30 1016.7 0 17.3 22.0 32.1 84.1 76.7 263.6
08/05 16:20 24.5 34 7.61 7.6 15 19 1016.6 0 17.0 21.8 31.6 82.7 75.0 257.9
08/05 16:10 25.3 33 7.73 7.9 22 26 1016.5 0 17.2 21.7 31.7 82.9 75.6 260.0
08/05 16:00 25 34 7.83 8.1 19 35 1016.6 0 17.5 21.9 32.2 84.2 77.0 264.8
08/05 15:50 24.8 33 7.51 7.4 20 24 1016.7 0 16.8 21.6 31.2 81.5 73.7 253.1
08/05 15:40 24.9 34 7.78 8 19 24 1016.7 0 17.4 21.9 32.0 83.8 76.6 263.2
08/05 15:30 24.6 34 7.65 7.7 24 37 1016.8 0 17.1 21.8 31.7 83.0 75.4 259.2
08/05 15:20 25 33 7.6 7.6 13 17 1016.9 0 17.0 21.6 31.4 82.1 74.5 256.0
08/05 15:10 24.7 34 7.7 7.8 22 24 1017.1 0 17.2 21.8 31.9 83.3 75.9 260.9
08/05 15:00 24.7 33 7.47 7.4 19 32 1017.2 0 16.7 21.5 31.1 81.3 73.4 252.0
08/05 14:50 24.6 34 7.65 7.7 19 22 1017.4 0 17.1 21.8 31.7 83.0 75.4 259.3
08/05 14:40 24.2 34 7.48 7.4 22 28 1017.5 0 16.8 21.7 31.3 81.9 73.9 254.0
08/05 14:30 24.2 34 7.48 7.4 19 32 1017.6 0 16.8 21.7 31.3 81.9 73.9 254.0
08/05 14:20 24.3 34 7.52 7.4 17 24 1017.7 0 16.8 21.7 31.4 82.2 74.3 255.2
08/05 14:10 24.3 33 7.3 7 17 20 1017.9 0 16.4 21.4 30.7 80.2 71.9 246.8
08/05 14:00 24.5 33 7.39 7.2 24 33 1018.2 0 16.6 21.5 30.9 80.9 72.7 249.7
08/05 13:50 24.4 34 7.57 7.5 17 20 1018.3 0 16.9 21.8 31.6 82.6 74.8 257.0
08/05 13:40 24.3 34 7.52 7.4 17 20 1018.5 0 16.8 21.7 31.5 82.2 74.4 255.4

Last Refresh: 09-May-2026 06:10:09

Bureau of Meteorology